sensor_id;sensor_type;location;lat;lon;timestamp;pressure;altitude;pressure_sealevel;temperature;humidity
46534;BME280;32260;52.008;4.752;2023-08-31T00:01:00;100884.25;;;15.07;72.06
46534;BME280;32260;52.008;4.752;2023-08-31T00:03:26;100885.97;;;15.08;72.50
46534;BME280;32260;52.008;4.752;2023-08-31T00:05:52;100893.81;;;15.12;72.37
46534;BME280;32260;52.008;4.752;2023-08-31T00:08:18;100893.81;;;15.12;72.96
46534;BME280;32260;52.008;4.752;2023-08-31T00:10:44;100890.00;;;15.19;72.80
46534;BME280;32260;52.008;4.752;2023-08-31T00:13:11;100886.25;;;15.24;72.64
46534;BME280;32260;52.008;4.752;2023-08-31T00:15:38;100889.75;;;15.26;72.54
46534;BME280;32260;52.008;4.752;2023-08-31T00:18:04;100885.34;;;15.25;73.20
46534;BME280;32260;52.008;4.752;2023-08-31T00:20:31;100884.03;;;15.35;72.98
46534;BME280;32260;52.008;4.752;2023-08-31T00:22:57;100882.94;;;15.41;73.01
46534;BME280;32260;52.008;4.752;2023-08-31T00:25:24;100881.03;;;15.44;72.82
46534;BME280;32260;52.008;4.752;2023-08-31T00:27:50;100885.53;;;15.42;73.30
46534;BME280;32260;52.008;4.752;2023-08-31T00:30:18;100890.78;;;15.45;73.29
46534;BME280;32260;52.008;4.752;2023-08-31T00:32:44;100883.69;;;15.44;72.92
46534;BME280;32260;52.008;4.752;2023-08-31T00:35:13;100880.78;;;15.50;73.04
46534;BME280;32260;52.008;4.752;2023-08-31T00:37:39;100882.53;;;15.51;73.38
46534;BME280;32260;52.008;4.752;2023-08-31T00:40:05;100873.44;;;15.56;73.44
46534;BME280;32260;52.008;4.752;2023-08-31T00:42:34;100874.13;;;15.61;73.26
46534;BME280;32260;52.008;4.752;2023-08-31T00:45:00;100886.56;;;15.62;72.97
46534;BME280;32260;52.008;4.752;2023-08-31T00:47:26;100892.00;;;15.59;72.62
46534;BME280;32260;52.008;4.752;2023-08-31T00:49:53;100889.28;;;15.60;72.64
46534;BME280;32260;52.008;4.752;2023-08-31T00:52:20;100887.47;;;15.61;72.46
46534;BME280;32260;52.008;4.752;2023-08-31T00:54:46;100891.81;;;15.63;71.90
46534;BME280;32260;52.008;4.752;2023-08-31T00:57:13;100892.66;;;15.65;71.90
46534;BME280;32260;52.008;4.752;2023-08-31T00:59:39;100893.63;;;15.63;71.52
46534;BME280;32260;52.008;4.752;2023-08-31T01:02:11;100888.16;;;15.66;71.70
46534;BME280;32260;52.008;4.752;2023-08-31T01:05:55;100884.41;;;15.70;71.30
46534;BME280;32260;52.008;4.752;2023-08-31T01:13:25;100890.53;;;15.51;72.02
46534;BME280;32260;52.008;4.752;2023-08-31T01:15:54;100894.88;;;15.54;71.08
46534;BME280;32260;52.008;4.752;2023-08-31T01:18:23;100890.63;;;15.48;72.16
46534;BME280;32260;52.008;4.752;2023-08-31T01:23:44;100892.31;;;15.51;72.18
46534;BME280;32260;52.008;4.752;2023-08-31T01:26:10;100883.94;;;15.38;72.17
46534;BME280;32260;52.008;4.752;2023-08-31T01:28:38;100879.59;;;15.35;71.91
46534;BME280;32260;52.008;4.752;2023-08-31T01:31:05;100886.84;;;15.32;72.01
46534;BME280;32260;52.008;4.752;2023-08-31T01:33:32;100888.81;;;15.27;72.12
46534;BME280;32260;52.008;4.752;2023-08-31T01:35:59;100890.44;;;15.31;71.78
46534;BME280;32260;52.008;4.752;2023-08-31T01:38:29;100889.75;;;15.26;71.86
46534;BME280;32260;52.008;4.752;2023-08-31T01:43:41;100897.47;;;15.33;71.55
46534;BME280;32260;52.008;4.752;2023-08-31T01:46:07;100909.72;;;15.39;71.61
46534;BME280;32260;52.008;4.752;2023-08-31T01:48:39;100920.31;;;15.41;71.79
46534;BME280;32260;52.008;4.752;2023-08-31T01:51:07;100928.44;;;15.37;71.62
46534;BME280;32260;52.008;4.752;2023-08-31T01:53:33;100914.47;;;15.31;72.45
46534;BME280;32260;52.008;4.752;2023-08-31T01:56:00;100910.94;;;15.30;72.34
46534;BME280;32260;52.008;4.752;2023-08-31T01:58:26;100894.50;;;15.17;72.49
46534;BME280;32260;52.008;4.752;2023-08-31T02:00:53;100899.28;;;15.33;72.37
46534;BME280;32260;52.008;4.752;2023-08-31T02:03:19;100893.00;;;15.34;71.95
46534;BME280;32260;52.008;4.752;2023-08-31T02:05:45;100896.59;;;15.33;71.89
46534;BME280;32260;52.008;4.752;2023-08-31T02:08:11;100898.44;;;15.31;71.99
46534;BME280;32260;52.008;4.752;2023-08-31T02:10:37;100892.50;;;15.24;72.06
46534;BME280;32260;52.008;4.752;2023-08-31T02:13:03;100889.16;;;15.17;71.38
46534;BME280;32260;52.008;4.752;2023-08-31T02:15:29;100893.06;;;15.09;71.31
46534;BME280;32260;52.008;4.752;2023-08-31T02:17:56;100889.47;;;15.10;71.08
46534;BME280;32260;52.008;4.752;2023-08-31T02:20:22;100888.09;;;14.99;71.43
46534;BME280;32260;52.008;4.752;2023-08-31T02:22:48;100889.88;;;14.99;71.52
46534;BME280;32260;52.008;4.752;2023-08-31T02:25:15;100890.56;;;15.04;71.25
46534;BME280;32260;52.008;4.752;2023-08-31T02:27:42;100893.22;;;15.04;71.37
46534;BME280;32260;52.008;4.752;2023-08-31T02:30:08;100892.31;;;15.05;71.36
46534;BME280;32260;52.008;4.752;2023-08-31T02:32:35;100886.41;;;14.97;72.06
46534;BME280;32260;52.008;4.752;2023-08-31T02:35:02;100892.31;;;15.05;71.75
46534;BME280;32260;52.008;4.752;2023-08-31T02:37:28;100885.19;;;15.06;71.91
46534;BME280;32260;52.008;4.752;2023-08-31T02:39:54;100876.50;;;15.00;72.27
46534;BME280;32260;52.008;4.752;2023-08-31T02:42:21;100877.41;;;14.99;72.43
46534;BME280;32260;52.008;4.752;2023-08-31T02:44:47;100889.63;;;15.05;71.94
46534;BME280;32260;52.008;4.752;2023-08-31T02:47:13;100890.56;;;15.04;72.55
46534;BME280;32260;52.008;4.752;2023-08-31T02:49:39;100894.41;;;14.97;72.89
46534;BME280;32260;52.008;4.752;2023-08-31T02:52:05;100887.09;;;15.02;72.56
46534;BME280;32260;52.008;4.752;2023-08-31T02:54:31;100882.63;;;15.02;73.24
46534;BME280;32260;52.008;4.752;2023-08-31T02:56:57;100893.19;;;15.06;72.78
46534;BME280;32260;52.008;4.752;2023-08-31T02:59:23;100891.31;;;15.08;72.36
46534;BME280;32260;52.008;4.752;2023-08-31T03:01:49;100889.63;;;15.05;72.59
46534;BME280;32260;52.008;4.752;2023-08-31T03:04:16;100886.97;;;15.05;72.29
46534;BME280;32260;52.008;4.752;2023-08-31T03:06:43;100891.53;;;15.01;72.83
46534;BME280;32260;52.008;4.752;2023-08-31T03:09:09;100878.28;;;15.00;72.66
46534;BME280;32260;52.008;4.752;2023-08-31T03:11:35;100867.91;;;14.92;73.20
46534;BME280;32260;52.008;4.752;2023-08-31T03:14:01;100871.47;;;14.91;72.79
46534;BME280;32260;52.008;4.752;2023-08-31T03:16:27;100868.81;;;14.91;73.14
46534;BME280;32260;52.008;4.752;2023-08-31T03:18:54;100871.56;;;14.90;73.30
46534;BME280;32260;52.008;4.752;2023-08-31T03:21:20;100879.66;;;14.86;73.52
46534;BME280;32260;52.008;4.752;2023-08-31T03:23:46;100886.72;;;14.87;73.07
46534;BME280;32260;52.008;4.752;2023-08-31T03:26:12;100887.66;;;14.86;73.10
46534;BME280;32260;52.008;4.752;2023-08-31T03:28:38;100881.34;;;14.89;72.90
46534;BME280;32260;52.008;4.752;2023-08-31T03:31:06;100891.28;;;14.85;73.18
46534;BME280;32260;52.008;4.752;2023-08-31T03:33:32;100880.59;;;14.85;73.28
46534;BME280;32260;52.008;4.752;2023-08-31T03:36:02;100885.81;;;14.88;72.85
46534;BME280;32260;52.008;4.752;2023-08-31T03:38:31;100881.47;;;14.86;72.69
46534;BME280;32260;52.008;4.752;2023-08-31T03:40:57;100884.06;;;14.87;72.65
46534;BME280;32260;52.008;4.752;2023-08-31T03:43:23;100880.59;;;14.85;72.60
46534;BME280;32260;52.008;4.752;2023-08-31T03:45:53;100886.88;;;14.84;72.75
46534;BME280;32260;52.008;4.752;2023-08-31T03:48:22;100882.44;;;14.83;72.54
46534;BME280;32260;52.008;4.752;2023-08-31T03:50:50;100889.75;;;14.78;72.77
46534;BME280;32260;52.008;4.752;2023-08-31T03:53:17;100890.69;;;14.77;72.55
46534;BME280;32260;52.008;4.752;2023-08-31T03:55:43;100887.25;;;14.74;72.50
46534;BME280;32260;52.008;4.752;2023-08-31T03:58:09;100888.16;;;14.72;72.69
46534;BME280;32260;52.008;4.752;2023-08-31T04:00:36;100887.41;;;14.69;73.12
46534;BME280;32260;52.008;4.752;2023-08-31T04:03:02;100892.88;;;14.66;72.99
46534;BME280;32260;52.008;4.752;2023-08-31T04:05:31;100888.38;;;14.68;72.49
46534;BME280;32260;52.008;4.752;2023-08-31T04:07:58;100884.91;;;14.64;72.52
46534;BME280;32260;52.008;4.752;2023-08-31T04:10:24;100894.81;;;14.61;72.57
46534;BME280;32260;52.008;4.752;2023-08-31T04:12:51;100888.78;;;14.55;72.85
46534;BME280;32260;52.008;4.752;2023-08-31T04:15:17;100883.44;;;14.55;72.50
46534;BME280;32260;52.008;4.752;2023-08-31T04:17:44;100891.53;;;14.52;72.56
46534;BME280;32260;52.008;4.752;2023-08-31T04:20:11;100900.50;;;14.50;72.58
46534;BME280;32260;52.008;4.752;2023-08-31T04:22:38;100899.66;;;14.49;72.34
46534;BME280;32260;52.008;4.752;2023-08-31T04:25:04;100905.84;;;14.50;72.49
46534;BME280;32260;52.008;4.752;2023-08-31T04:27:30;100904.91;;;14.51;72.19
46534;BME280;32260;52.008;4.752;2023-08-31T04:29:59;100913.78;;;14.51;72.26
46534;BME280;32260;52.008;4.752;2023-08-31T04:32:25;100900.44;;;14.51;72.41
46534;BME280;32260;52.008;4.752;2023-08-31T04:34:52;100905.78;;;14.51;72.20
46534;BME280;32260;52.008;4.752;2023-08-31T04:37:18;100918.25;;;14.51;72.10
46534;BME280;32260;52.008;4.752;2023-08-31T04:39:44;100921.78;;;14.51;72.02
46534;BME280;32260;52.008;4.752;2023-08-31T04:42:10;100926.19;;;14.52;71.97
46534;BME280;32260;52.008;4.752;2023-08-31T04:44:36;100922.66;;;14.52;72.02
46534;BME280;32260;52.008;4.752;2023-08-31T04:47:02;100932.16;;;14.59;71.96
46534;BME280;32260;52.008;4.752;2023-08-31T04:49:28;100932.94;;;14.63;71.69
46534;BME280;32260;52.008;4.752;2023-08-31T04:51:56;100926.75;;;14.62;71.55
46534;BME280;32260;52.008;4.752;2023-08-31T04:54:22;100937.28;;;14.67;71.63
46534;BME280;32260;52.008;4.752;2023-08-31T04:56:48;100933.72;;;14.66;71.23
46534;BME280;32260;52.008;4.752;2023-08-31T04:59:14;100934.69;;;14.64;71.36
46534;BME280;32260;52.008;4.752;2023-08-31T05:01:41;100939.03;;;14.68;71.07
46534;BME280;32260;52.008;4.752;2023-08-31T05:04:07;100940.59;;;14.74;71.28
46534;BME280;32260;52.008;4.752;2023-08-31T05:06:33;100946.69;;;14.77;71.10
46534;BME280;32260;52.008;4.752;2023-08-31T05:08:59;100953.84;;;14.77;70.72
46534;BME280;32260;52.008;4.752;2023-08-31T05:11:26;100955.28;;;14.85;70.81
46534;BME280;32260;52.008;4.752;2023-08-31T05:13:52;100965.97;;;14.85;70.52
46534;BME280;32260;52.008;4.752;2023-08-31T05:16:18;100963.00;;;14.93;70.73
46534;BME280;32260;52.008;4.752;2023-08-31T05:18:44;100966.38;;;14.98;70.51
46534;BME280;32260;52.008;4.752;2023-08-31T05:21:10;100971.56;;;15.03;70.57
46534;BME280;32260;52.008;4.752;2023-08-31T05:23:36;100981.19;;;15.07;70.45
46534;BME280;32260;52.008;4.752;2023-08-31T05:26:03;100980.97;;;15.13;70.50
46534;BME280;32260;52.008;4.752;2023-08-31T05:28:29;100980.91;;;15.15;70.57
46534;BME280;32260;52.008;4.752;2023-08-31T05:30:57;100993.22;;;15.19;70.39
46534;BME280;32260;52.008;4.752;2023-08-31T05:33:26;100989.56;;;15.22;70.51
46534;BME280;32260;52.008;4.752;2023-08-31T05:35:54;100980.59;;;15.23;70.68
46534;BME280;32260;52.008;4.752;2023-08-31T05:38:21;100984.00;;;15.28;70.53
46534;BME280;32260;52.008;4.752;2023-08-31T05:40:47;100989.09;;;15.34;71.00
46534;BME280;32260;52.008;4.752;2023-08-31T05:43:13;100987.06;;;15.41;70.87
46534;BME280;32260;52.008;4.752;2023-08-31T05:45:39;100985.94;;;15.46;71.04
46534;BME280;32260;52.008;4.752;2023-08-31T05:48:07;100992.00;;;15.51;71.04
46534;BME280;32260;52.008;4.752;2023-08-31T05:50:33;100990.03;;;15.57;71.42
46534;BME280;32260;52.008;4.752;2023-08-31T05:52:59;101005.81;;;15.63;71.23
46534;BME280;32260;52.008;4.752;2023-08-31T05:55:25;100995.88;;;15.66;71.38
46534;BME280;32260;52.008;4.752;2023-08-31T05:57:52;100996.50;;;15.73;71.66
46534;BME280;32260;52.008;4.752;2023-08-31T06:00:18;101004.38;;;15.76;71.57
46534;BME280;32260;52.008;4.752;2023-08-31T06:02:44;100997.19;;;15.78;71.76
46534;BME280;32260;52.008;4.752;2023-08-31T06:05:11;100999.75;;;15.81;71.69
46534;BME280;32260;52.008;4.752;2023-08-31T06:07:38;101005.00;;;15.84;71.93
46534;BME280;32260;52.008;4.752;2023-08-31T06:10:06;101002.31;;;15.84;71.77
46534;BME280;32260;52.008;4.752;2023-08-31T06:12:32;101000.41;;;15.88;71.84
46534;BME280;32260;52.008;4.752;2023-08-31T06:14:58;100997.66;;;15.90;71.75
46534;BME280;32260;52.008;4.752;2023-08-31T06:17:26;100995.88;;;15.90;71.70
46534;BME280;32260;52.008;4.752;2023-08-31T06:19:52;101003.00;;;15.90;71.89
46534;BME280;32260;52.008;4.752;2023-08-31T06:22:18;101006.59;;;15.89;71.54
46534;BME280;32260;52.008;4.752;2023-08-31T06:24:44;101007.59;;;15.86;71.51
46534;BME280;32260;52.008;4.752;2023-08-31T06:27:11;101004.06;;;15.85;71.48
46534;BME280;32260;52.008;4.752;2023-08-31T06:29:38;101004.88;;;15.88;71.57
46534;BME280;32260;52.008;4.752;2023-08-31T06:32:05;101008.50;;;15.87;71.48
46534;BME280;32260;52.008;4.752;2023-08-31T06:34:31;101015.56;;;15.88;71.48
46534;BME280;32260;52.008;4.752;2023-08-31T06:36:57;101010.25;;;15.88;70.96
46534;BME280;32260;52.008;4.752;2023-08-31T06:39:24;101011.94;;;15.89;70.85
46534;BME280;32260;52.008;4.752;2023-08-31T06:41:50;101021.84;;;15.87;70.74
46534;BME280;32260;52.008;4.752;2023-08-31T06:44:16;101019.19;;;15.87;70.79
46534;BME280;32260;52.008;4.752;2023-08-31T06:46:43;101029.88;;;15.87;71.17
46534;BME280;32260;52.008;4.752;2023-08-31T06:49:09;101032.34;;;15.91;71.07
46534;BME280;32260;52.008;4.752;2023-08-31T06:51:36;101033.97;;;15.95;70.96
46534;BME280;32260;52.008;4.752;2023-08-31T06:54:03;101029.31;;;16.00;70.96
46534;BME280;32260;52.008;4.752;2023-08-31T06:56:33;101029.88;;;16.09;70.91
46534;BME280;32260;52.008;4.752;2023-08-31T06:58:59;101035.91;;;16.14;70.78
46534;BME280;32260;52.008;4.752;2023-08-31T07:01:25;101029.50;;;16.18;71.04
46534;BME280;32260;52.008;4.752;2023-08-31T07:03:53;101035.59;;;16.22;71.06
46534;BME280;32260;52.008;4.752;2023-08-31T07:06:19;101039.09;;;16.24;71.14
46534;BME280;32260;52.008;4.752;2023-08-31T07:08:45;101040.78;;;16.26;71.03
46534;BME280;32260;52.008;4.752;2023-08-31T07:11:13;101050.41;;;16.30;70.95
46534;BME280;32260;52.008;4.752;2023-08-31T07:13:39;101038.69;;;16.33;71.19
46534;BME280;32260;52.008;4.752;2023-08-31T07:16:05;101044.81;;;16.37;71.40
46534;BME280;32260;52.008;4.752;2023-08-31T07:18:32;101050.06;;;16.38;71.14
46534;BME280;32260;52.008;4.752;2023-08-31T07:20:58;101055.31;;;16.41;71.27
46534;BME280;32260;52.008;4.752;2023-08-31T07:23:24;101046.34;;;16.42;71.29
46534;BME280;32260;52.008;4.752;2023-08-31T07:25:50;101051.44;;;16.48;71.32
46534;BME280;32260;52.008;4.752;2023-08-31T07:28:16;101052.00;;;16.57;71.22
46534;BME280;32260;52.008;4.752;2023-08-31T07:30:43;101050.88;;;16.62;71.36
46534;BME280;32260;52.008;4.752;2023-08-31T07:33:09;101047.97;;;16.67;71.30
46534;BME280;32260;52.008;4.752;2023-08-31T07:35:36;101046.13;;;16.69;70.74
46534;BME280;32260;52.008;4.752;2023-08-31T07:38:02;101045.47;;;16.85;70.53
46534;BME280;32260;52.008;4.752;2023-08-31T07:40:28;101059.41;;;16.93;69.87
46534;BME280;32260;52.008;4.752;2023-08-31T07:42:54;101047.84;;;16.92;67.78
46534;BME280;32260;52.008;4.752;2023-08-31T07:45:20;101065.19;;;17.04;67.40
46534;BME280;32260;52.008;4.752;2023-08-31T07:47:46;101065.56;;;17.16;67.32
46534;BME280;32260;52.008;4.752;2023-08-31T07:50:12;101058.19;;;17.21;66.76
46534;BME280;32260;52.008;4.752;2023-08-31T07:52:40;101065.44;;;17.19;65.08
46534;BME280;32260;52.008;4.752;2023-08-31T07:55:06;101056.88;;;17.31;65.64
46534;BME280;32260;52.008;4.752;2023-08-31T07:57:32;101057.34;;;17.41;64.68
46534;BME280;32260;52.008;4.752;2023-08-31T08:00:00;101058.84;;;17.46;63.68
46534;BME280;32260;52.008;4.752;2023-08-31T08:02:26;101074.34;;;17.40;61.58
46534;BME280;32260;52.008;4.752;2023-08-31T08:04:52;101062.34;;;17.49;60.99
46534;BME280;32260;52.008;4.752;2023-08-31T08:07:18;101069.94;;;17.58;61.30
46534;BME280;32260;52.008;4.752;2023-08-31T08:09:44;101068.56;;;17.68;61.84
46534;BME280;32260;52.008;4.752;2023-08-31T08:12:10;101079.16;;;17.71;60.69
46534;BME280;32260;52.008;4.752;2023-08-31T08:14:36;101077.06;;;17.78;60.19
46534;BME280;32260;52.008;4.752;2023-08-31T08:17:02;101073.34;;;17.81;59.90
46534;BME280;32260;52.008;4.752;2023-08-31T08:19:29;101077.38;;;17.91;59.90
46534;BME280;32260;52.008;4.752;2023-08-31T08:21:55;101075.84;;;18.04;59.95
46534;BME280;32260;52.008;4.752;2023-08-31T08:24:21;101084.13;;;18.19;60.48
46534;BME280;32260;52.008;4.752;2023-08-31T08:26:47;101085.88;;;18.20;58.30
46534;BME280;32260;52.008;4.752;2023-08-31T08:29:13;101085.69;;;18.23;57.29
46534;BME280;32260;52.008;4.752;2023-08-31T08:31:39;101088.38;;;18.23;55.00
46534;BME280;32260;52.008;4.752;2023-08-31T08:34:06;101087.75;;;18.37;55.82
46534;BME280;32260;52.008;4.752;2023-08-31T08:36:32;101091.63;;;18.49;55.38
46534;BME280;32260;52.008;4.752;2023-08-31T08:38:58;101091.31;;;18.55;54.79
46534;BME280;32260;52.008;4.752;2023-08-31T08:41:24;101115.75;;;18.49;53.55
46534;BME280;32260;52.008;4.752;2023-08-31T08:43:53;101094.63;;;18.60;52.28
46534;BME280;32260;52.008;4.752;2023-08-31T08:46:23;101097.47;;;18.57;52.47
46534;BME280;32260;52.008;4.752;2023-08-31T08:48:50;101098.84;;;18.66;53.49
46534;BME280;32260;52.008;4.752;2023-08-31T08:51:16;101095.16;;;18.86;53.86
46534;BME280;32260;52.008;4.752;2023-08-31T08:53:43;101092.53;;;18.84;52.89
46534;BME280;32260;52.008;4.752;2023-08-31T08:56:11;101111.59;;;18.97;52.91
46534;BME280;32260;52.008;4.752;2023-08-31T08:58:37;101103.25;;;19.03;52.32
46534;BME280;32260;52.008;4.752;2023-08-31T09:01:04;101105.13;;;19.19;52.30
46534;BME280;32260;52.008;4.752;2023-08-31T09:03:34;101112.00;;;19.07;51.80
46534;BME280;32260;52.008;4.752;2023-08-31T09:06:00;101109.41;;;19.23;52.27
46534;BME280;32260;52.008;4.752;2023-08-31T09:08:29;101112.53;;;19.31;52.44
46534;BME280;32260;52.008;4.752;2023-08-31T09:10:57;101116.72;;;19.37;51.63
46534;BME280;32260;52.008;4.752;2023-08-31T09:13:27;101107.88;;;19.35;50.41
46534;BME280;32260;52.008;4.752;2023-08-31T09:15:55;101121.78;;;19.43;50.33
46534;BME280;32260;52.008;4.752;2023-08-31T09:18:37;101110.84;;;19.46;50.92
46534;BME280;32260;52.008;4.752;2023-08-31T09:21:03;101120.28;;;19.20;49.68
46534;BME280;32260;52.008;4.752;2023-08-31T09:23:29;101117.91;;;19.31;50.95
46534;BME280;32260;52.008;4.752;2023-08-31T09:25:55;101115.19;;;19.49;50.83
46534;BME280;32260;52.008;4.752;2023-08-31T09:28:24;101120.09;;;19.58;49.60
46534;BME280;32260;52.008;4.752;2023-08-31T09:30:52;101116.41;;;19.77;50.14
46534;BME280;32260;52.008;4.752;2023-08-31T09:33:20;101118.16;;;19.78;49.35
46534;BME280;32260;52.008;4.752;2023-08-31T09:35:49;101116.72;;;19.88;47.40
46534;BME280;32260;52.008;4.752;2023-08-31T09:38:16;101124.47;;;19.94;46.80
46534;BME280;32260;52.008;4.752;2023-08-31T09:40:43;101120.75;;;20.13;46.80
46534;BME280;32260;52.008;4.752;2023-08-31T09:43:09;101117.38;;;20.25;46.01
46534;BME280;32260;52.008;4.752;2023-08-31T09:45:35;101124.84;;;20.20;46.10
46534;BME280;32260;52.008;4.752;2023-08-31T09:48:03;101120.47;;;20.33;45.29
46534;BME280;32260;52.008;4.752;2023-08-31T09:50:32;101125.59;;;20.54;46.54
46534;BME280;32260;52.008;4.752;2023-08-31T09:53:03;101123.72;;;20.56;45.26
46534;BME280;32260;52.008;4.752;2023-08-31T09:55:30;101124.38;;;20.60;45.81
46534;BME280;32260;52.008;4.752;2023-08-31T09:57:59;101124.47;;;20.58;45.42
46534;BME280;32260;52.008;4.752;2023-08-31T10:00:28;101129.97;;;20.73;45.45
46534;BME280;32260;52.008;4.752;2023-08-31T10:02:58;101128.81;;;20.77;44.15
46534;BME280;32260;52.008;4.752;2023-08-31T10:05:26;101134.09;;;20.78;45.20
46534;BME280;32260;52.008;4.752;2023-08-31T10:07:52;101123.50;;;20.91;43.71
46534;BME280;32260;52.008;4.752;2023-08-31T10:10:19;101126.69;;;20.98;43.42
46534;BME280;32260;52.008;4.752;2023-08-31T10:12:48;101129.50;;;21.11;44.05
46534;BME280;32260;52.008;4.752;2023-08-31T10:15:16;101125.47;;;21.18;43.88
46534;BME280;32260;52.008;4.752;2023-08-31T10:17:43;101120.69;;;21.23;43.97
46534;BME280;32260;52.008;4.752;2023-08-31T10:20:12;101129.97;;;21.33;43.84
46534;BME280;32260;52.008;4.752;2023-08-31T10:22:39;101123.03;;;21.44;43.79
46534;BME280;32260;52.008;4.752;2023-08-31T10:25:06;101131.50;;;21.38;42.39
46534;BME280;32260;52.008;4.752;2023-08-31T10:27:39;101133.44;;;21.50;42.84
46534;BME280;32260;52.008;4.752;2023-08-31T10:30:27;101127.38;;;21.46;40.76
46534;BME280;32260;52.008;4.752;2023-08-31T10:35:56;101132.19;;;21.41;42.20
46534;BME280;32260;52.008;4.752;2023-08-31T10:43:48;101120.00;;;21.64;41.14
46534;BME280;32260;52.008;4.752;2023-08-31T10:51:23;101126.50;;;21.46;39.92
46534;BME280;32260;52.008;4.752;2023-08-31T10:53:50;101124.63;;;21.62;41.16
46534;BME280;32260;52.008;4.752;2023-08-31T10:56:17;101126.75;;;21.72;41.33
46534;BME280;32260;52.008;4.752;2023-08-31T10:58:59;101142.16;;;21.70;37.37
46534;BME280;32260;52.008;4.752;2023-08-31T11:02:00;101138.31;;;21.74;37.09
46534;BME280;32260;52.008;4.752;2023-08-31T11:04:30;101138.44;;;21.42;37.02
46534;BME280;32260;52.008;4.752;2023-08-31T11:07:14;101142.31;;;21.52;37.74
46534;BME280;32260;52.008;4.752;2023-08-31T11:09:41;101135.25;;;21.49;39.69
46534;BME280;32260;52.008;4.752;2023-08-31T11:12:08;101137.00;;;21.50;39.79
46534;BME280;32260;52.008;4.752;2023-08-31T11:14:34;101128.31;;;21.76;40.01
46534;BME280;32260;52.008;4.752;2023-08-31T11:17:00;101141.38;;;21.96;40.01
46534;BME280;32260;52.008;4.752;2023-08-31T11:19:28;101116.91;;;22.00;39.32
46534;BME280;32260;52.008;4.752;2023-08-31T11:21:55;101138.50;;;22.00;38.22
46534;BME280;32260;52.008;4.752;2023-08-31T11:24:21;101128.00;;;22.09;37.21
46534;BME280;32260;52.008;4.752;2023-08-31T11:26:51;101132.38;;;22.25;38.85
46534;BME280;32260;52.008;4.752;2023-08-31T11:29:18;101132.50;;;22.09;37.73
46534;BME280;32260;52.008;4.752;2023-08-31T11:31:44;101129.13;;;22.05;38.27
46534;BME280;32260;52.008;4.752;2023-08-31T11:34:15;101131.72;;;22.07;38.90
46534;BME280;32260;52.008;4.752;2023-08-31T11:36:43;101130.97;;;22.05;37.99
46534;BME280;32260;52.008;4.752;2023-08-31T11:39:10;101127.38;;;22.19;38.44
46534;BME280;32260;52.008;4.752;2023-08-31T11:41:37;101133.56;;;22.21;38.86
46534;BME280;32260;52.008;4.752;2023-08-31T11:44:10;101127.25;;;22.35;39.32
46534;BME280;32260;52.008;4.752;2023-08-31T11:46:38;101129.00;;;22.36;38.20
46534;BME280;32260;52.008;4.752;2023-08-31T11:49:05;101123.69;;;22.49;39.76
46534;BME280;32260;52.008;4.752;2023-08-31T11:51:33;101147.91;;;22.21;38.08
46534;BME280;32260;52.008;4.752;2023-08-31T11:54:00;101126.91;;;22.41;39.23
46534;BME280;32260;52.008;4.752;2023-08-31T11:56:44;101120.53;;;22.42;37.53
46534;BME280;32260;52.008;4.752;2023-08-31T11:59:14;101118.91;;;22.39;37.82
46534;BME280;32260;52.008;4.752;2023-08-31T12:01:42;101118.06;;;22.52;37.53
46534;BME280;32260;52.008;4.752;2023-08-31T12:04:13;101116.34;;;22.78;38.67
46534;BME280;32260;52.008;4.752;2023-08-31T12:06:40;101118.41;;;22.87;38.11
46534;BME280;32260;52.008;4.752;2023-08-31T12:09:08;101111.50;;;22.83;37.29
46534;BME280;32260;52.008;4.752;2023-08-31T12:11:34;101122.31;;;22.83;39.13
46534;BME280;32260;52.008;4.752;2023-08-31T12:14:02;101122.06;;;22.73;38.02
46534;BME280;32260;52.008;4.752;2023-08-31T12:16:34;101124.22;;;22.68;36.13
46534;BME280;32260;52.008;4.752;2023-08-31T12:19:02;101123.94;;;22.58;38.06
46534;BME280;32260;52.008;4.752;2023-08-31T12:21:30;101127.00;;;22.39;37.35
46534;BME280;32260;52.008;4.752;2023-08-31T12:23:58;101133.03;;;22.43;37.34
46534;BME280;32260;52.008;4.752;2023-08-31T12:26:25;101133.25;;;22.40;37.16
46534;BME280;32260;52.008;4.752;2023-08-31T12:28:51;101139.63;;;22.24;37.07
46534;BME280;32260;52.008;4.752;2023-08-31T12:31:17;101131.31;;;22.27;37.90
46534;BME280;32260;52.008;4.752;2023-08-31T12:33:43;101134.53;;;22.20;38.41
46534;BME280;32260;52.008;4.752;2023-08-31T12:36:09;101135.19;;;22.38;38.62
46534;BME280;32260;52.008;4.752;2023-08-31T12:38:35;101134.59;;;22.33;37.88
46534;BME280;32260;52.008;4.752;2023-08-31T12:41:01;101130.56;;;22.40;37.65
46534;BME280;32260;52.008;4.752;2023-08-31T12:43:28;101140.19;;;22.44;37.54
46534;BME280;32260;52.008;4.752;2023-08-31T12:45:55;101132.81;;;22.60;38.29
46534;BME280;32260;52.008;4.752;2023-08-31T12:48:21;101129.19;;;22.74;40.81
46534;BME280;32260;52.008;4.752;2023-08-31T12:50:47;101130.56;;;22.94;37.78
46534;BME280;32260;52.008;4.752;2023-08-31T12:53:15;101132.47;;;22.92;35.64
46534;BME280;32260;52.008;4.752;2023-08-31T12:55:41;101137.75;;;23.21;37.51
46534;BME280;32260;52.008;4.752;2023-08-31T12:58:07;101131.13;;;23.13;35.51
46534;BME280;32260;52.008;4.752;2023-08-31T13:00:34;101147.94;;;23.31;36.71
46534;BME280;32260;52.008;4.752;2023-08-31T13:03:00;101131.72;;;23.31;35.46
46534;BME280;32260;52.008;4.752;2023-08-31T13:05:28;101130.41;;;23.36;36.60
46534;BME280;32260;52.008;4.752;2023-08-31T13:07:55;101139.31;;;23.25;36.10
46534;BME280;32260;52.008;4.752;2023-08-31T13:10:21;101136.28;;;23.43;37.12
46534;BME280;32260;52.008;4.752;2023-08-31T13:12:47;101141.47;;;23.46;36.39
46534;BME280;32260;52.008;4.752;2023-08-31T13:15:13;101141.69;;;23.43;36.56